Time;durP1;ratioP1;P1;durP2;ratioP2;P2;SDS_P1;SDS_P2;PMS_P1;PMS_P2;Temp;Humidity;BMP_temperature;BMP_pressure;BME280_temperature;BME280_humidity;BME280_pressure;Samples;Min_cycle;Max_cycle;Signal;HPM_P1;HPM_P2
2023/05/03 00:00:53;;;;;;;9.23;7.15;;;;;;;;;;5073922;28;20040;-58
2023/05/03 00:03:21;;;;;;;8.43;7.45;;;;;;;;;;5073730;28;20484;-58
2023/05/03 00:05:47;;;;;;;9.60;7.13;;;;;;;;;;5073384;28;20493;-58
2023/05/03 00:08:12;;;;;;;10.02;7.55;;;;;;;;;;5073622;28;20032;-58
2023/05/03 00:10:38;;;;;;;9.20;7.32;;;;;;;;;;5073453;28;20059;-58
2023/05/03 00:13:03;;;;;;;9.27;7.43;;;;;;;;;;5073576;28;20409;-58
2023/05/03 00:15:29;;;;;;;11.85;8.02;;;;;;;;;;5073251;28;20406;-54
2023/05/03 00:17:54;;;;;;;9.32;7.50;;;;;;;;;;5073747;28;20020;-54
2023/05/03 00:20:20;;;;;;;9.75;7.53;;;;;;;;;;5073430;28;20025;-52
2023/05/03 00:22:46;;;;;;;8.57;7.15;;;;;;;;;;5073250;28;20451;-53
2023/05/03 00:25:11;;;;;;;8.20;7.18;;;;;;;;;;5073383;28;20082;-53
2023/05/03 00:27:37;;;;;;;7.88;6.85;;;;;;;;;;5073452;28;20043;-53
2023/05/03 00:30:02;;;;;;;8.20;7.25;;;;;;;;;;5073002;28;20032;-53
2023/05/03 00:32:28;;;;;;;7.15;6.40;;;;;;;;;;5073247;28;20036;-58
2023/05/03 00:34:54;;;;;;;10.57;7.40;;;;;;;;;;5073344;28;20032;-53
2023/05/03 00:37:19;;;;;;;9.85;7.00;;;;;;;;;;5055613;28;20025;-53
2023/05/03 00:39:45;;;;;;;8.80;7.28;;;;;;;;;;5073564;28;20154;-54
2023/05/03 00:42:10;;;;;;;9.82;7.38;;;;;;;;;;5073048;28;20036;-53
2023/05/03 00:44:35;;;;;;;7.72;6.95;;;;;;;;;;5072968;28;20487;-54
2023/05/03 00:47:01;;;;;;;7.47;6.57;;;;;;;;;;5073821;28;20047;-58
2023/05/03 00:49:26;;;;;;;6.53;5.93;;;;;;;;;;5056487;28;20024;-57
2023/05/03 00:51:52;;;;;;;7.40;6.57;;;;;;;;;;5042496;28;20024;-58
2023/05/03 00:54:17;;;;;;;7.07;6.38;;;;;;;;;;5059219;28;20016;-58
2023/05/03 00:56:47;;;;;;;9.25;7.05;;;;;;;;;;5076657;28;20049;-58
2023/05/03 00:59:12;;;;;;;7.83;6.90;;;;;;;;;;5076948;28;20107;-58
2023/05/03 01:01:38;;;;;;;7.75;6.85;;;;;;;;;;5076397;28;20115;-58
2023/05/03 01:04:05;;;;;;;8.52;7.20;;;;;;;;;;5041651;28;20382;-58
2023/05/03 01:06:36;;;;;;;9.55;7.55;;;;;;;;;;5058473;28;20020;-58
2023/05/03 01:09:04;;;;;;;9.38;7.70;;;;;;;;;;5058441;28;20037;-53
2023/05/03 01:11:35;;;;;;;9.38;7.32;;;;;;;;;;5058253;28;20068;-54
2023/05/03 01:14:05;;;;;;;9.48;7.93;;;;;;;;;;5058720;28;20370;-54
2023/05/03 01:16:31;;;;;;;;;;;;;;;;;;5059304;28;20493;-53
2023/05/03 01:19:00;;;;;;;9.32;7.88;;;;;;;;;;5076472;28;19916;-54
2023/05/03 01:21:27;;;;;;;8.40;7.32;;;;;;;;;;5076202;28;20062;-54
2023/05/03 01:23:53;;;;;;;9.15;7.70;;;;;;;;;;5058045;28;20078;-53
2023/05/03 01:26:22;;;;;;;11.65;8.05;;;;;;;;;;5076077;28;20028;-52
2023/05/03 01:28:47;;;;;;;10.13;8.05;;;;;;;;;;5076185;28;20024;-60
2023/05/03 01:31:22;;;;;;;9.13;8.23;;;;;;;;;;5057946;28;20028;-58
2023/05/03 01:33:52;;;;;;;11.15;8.77;;;;;;;;;;5057827;28;20028;-58
2023/05/03 01:36:25;;;;;;;9.95;8.85;;;;;;;;;;5057804;28;20025;-58
2023/05/03 01:38:50;;;;;;;10.25;9.15;;;;;;;;;;5075806;28;20112;-53
2023/05/03 01:41:17;;;;;;;9.85;8.85;;;;;;;;;;5075753;28;20129;-53
2023/05/03 01:43:42;;;;;;;10.60;9.23;;;;;;;;;;5057798;28;20047;-53
2023/05/03 01:46:08;;;;;;;11.65;8.45;;;;;;;;;;5075769;28;20028;-57
2023/05/03 01:48:33;;;;;;;9.98;8.77;;;;;;;;;;5057693;28;20036;-58
2023/05/03 01:50:59;;;;;;;10.32;8.63;;;;;;;;;;5075354;28;20062;-59
2023/05/03 01:53:24;;;;;;;10.77;8.88;;;;;;;;;;5057479;28;20382;-58
2023/05/03 01:55:49;;;;;;;10.65;8.88;;;;;;;;;;5058141;28;20032;-58
2023/05/03 01:58:15;;;;;;;10.18;8.73;;;;;;;;;;5057710;28;20036;-58
2023/05/03 02:00:40;;;;;;;10.00;9.02;;;;;;;;;;5057760;28;20028;-58
2023/05/03 02:03:05;;;;;;;10.68;9.18;;;;;;;;;;5057200;28;20116;-58
2023/05/03 02:05:31;;;;;;;10.02;8.73;;;;;;;;;;5075476;28;20034;-58
2023/05/03 02:07:56;;;;;;;11.02;9.00;;;;;;;;;;5057173;28;20025;-58
2023/05/03 02:10:22;;;;;;;9.77;8.73;;;;;;;;;;5057803;28;20500;-58
2023/05/03 02:12:47;;;;;;;10.88;9.30;;;;;;;;;;5075255;28;20529;-59
2023/05/03 02:15:13;;;;;;;10.55;9.02;;;;;;;;;;5056973;28;20024;-58
2023/05/03 02:17:39;;;;;;;10.27;8.93;;;;;;;;;;5057051;28;20109;-52
2023/05/03 02:20:05;;;;;;;9.63;8.63;;;;;;;;;;5075161;28;20059;-53
2023/05/03 02:22:31;;;;;;;11.95;9.52;;;;;;;;;;5057663;28;20428;-59
2023/05/03 02:24:57;;;;;;;11.38;9.35;;;;;;;;;;5075430;28;20116;-59
2023/05/03 02:27:23;;;;;;;12.05;9.77;;;;;;;;;;5056968;28;20024;-58
2023/05/03 02:29:48;;;;;;;11.27;9.98;;;;;;;;;;5074885;28;20355;-58
2023/05/03 02:32:14;;;;;;;12.07;10.18;;;;;;;;;;5074774;28;20433;-58
2023/05/03 02:34:40;;;;;;;11.07;9.73;;;;;;;;;;5074551;28;20494;-59
2023/05/03 02:37:07;;;;;;;11.35;9.75;;;;;;;;;;5056649;28;20070;-60
2023/05/03 02:39:32;;;;;;;11.43;10.20;;;;;;;;;;5056879;28;20454;-59
2023/05/03 02:41:58;;;;;;;11.30;10.10;;;;;;;;;;5074559;28;20039;-59
2023/05/03 02:44:24;;;;;;;11.30;9.65;;;;;;;;;;5056835;28;20023;-59
2023/05/03 02:46:50;;;;;;;10.48;9.45;;;;;;;;;;5056459;28;20099;-59
2023/05/03 02:49:16;;;;;;;10.63;9.45;;;;;;;;;;5056764;28;20028;-58
2023/05/03 02:51:43;;;;;;;11.05;9.80;;;;;;;;;;5056744;28;20035;-58
2023/05/03 02:54:08;;;;;;;10.73;9.63;;;;;;;;;;5056705;28;20031;-58
2023/05/03 02:56:33;;;;;;;11.75;9.65;;;;;;;;;;5074824;28;20051;-58
2023/05/03 02:58:59;;;;;;;10.40;9.32;;;;;;;;;;5056253;28;20474;-58
2023/05/03 03:01:26;;;;;;;11.13;9.32;;;;;;;;;;5056160;28;20024;-58
2023/05/03 03:03:52;;;;;;;12.50;10.18;;;;;;;;;;5056510;28;20025;-58
2023/05/03 03:06:17;;;;;;;10.75;9.40;;;;;;;;;;5074602;28;20447;-58
2023/05/03 03:08:42;;;;;;;10.35;9.25;;;;;;;;;;5074111;28;20040;-58
2023/05/03 03:11:08;;;;;;;11.48;9.27;;;;;;;;;;5055541;28;20020;-58
2023/05/03 03:13:38;;;;;;;11.85;9.60;;;;;;;;;;5073806;28;20426;-58
2023/05/03 03:16:05;;;;;;;10.05;9.15;;;;;;;;;;5055913;28;20053;-58
2023/05/03 03:18:30;;;;;;;12.13;9.55;;;;;;;;;;5074401;28;20359;-58
2023/05/03 03:20:56;;;;;;;11.38;9.88;;;;;;;;;;5055859;28;20028;-58
2023/05/03 03:23:21;;;;;;;11.52;9.30;;;;;;;;;;5074516;28;20467;-58
2023/05/03 03:25:47;;;;;;;13.00;9.65;;;;;;;;;;5056535;28;20378;-58
2023/05/03 03:28:14;;;;;;;12.48;9.52;;;;;;;;;;5055743;28;20059;-59
2023/05/03 03:30:39;;;;;;;12.40;9.60;;;;;;;;;;5056276;28;20032;-58
2023/05/03 03:33:16;;;;;;;10.48;9.25;;;;;;;;;;5073904;28;20060;-58
2023/05/03 03:35:42;;;;;;;10.15;8.95;;;;;;;;;;5055709;28;20536;-58
2023/05/03 03:38:09;;;;;;;10.88;9.52;;;;;;;;;;5055777;28;20039;-58
2023/05/03 03:40:40;;;;;;;12.60;9.15;;;;;;;;;;5055861;28;20016;-59
2023/05/03 03:43:05;;;;;;;11.68;10.00;;;;;;;;;;5073619;28;20020;-58
2023/05/03 03:45:30;;;;;;;10.70;9.60;;;;;;;;;;5055650;28;20030;-58
2023/05/03 03:47:57;;;;;;;10.80;9.27;;;;;;;;;;5055829;28;20025;-58
2023/05/03 03:50:24;;;;;;;11.02;9.20;;;;;;;;;;5039390;28;20513;-59
2023/05/03 03:52:50;;;;;;;9.98;8.85;;;;;;;;;;5055574;28;20020;-59
2023/05/03 03:55:15;;;;;;;12.00;9.65;;;;;;;;;;5055631;28;20036;-59
2023/05/03 03:57:42;;;;;;;10.93;9.57;;;;;;;;;;5055238;28;20081;-59
2023/05/03 04:00:09;;;;;;;12.80;10.27;;;;;;;;;;5073676;28;20470;-59
2023/05/03 04:02:37;;;;;;;13.68;10.15;;;;;;;;;;5073733;28;20494;-58
2023/05/03 04:05:06;;;;;;;14.18;11.52;;;;;;;;;;5055604;28;20052;-58
2023/05/03 04:07:32;;;;;;;15.45;11.98;;;;;;;;;;5055429;28;20430;-58
2023/05/03 04:09:58;;;;;;;17.08;11.82;;;;;;;;;;5073337;28;20206;-55
2023/05/03 04:12:23;;;;;;;12.35;11.10;;;;;;;;;;5055326;28;20020;-58
2023/05/03 04:14:49;;;;;;;16.88;12.55;;;;;;;;;;5055995;28;20110;-59
2023/05/03 04:17:15;;;;;;;13.15;11.60;;;;;;;;;;5073241;28;20020;-58
2023/05/03 04:19:40;;;;;;;12.23;10.68;;;;;;;;;;5073572;28;20112;-58
2023/05/03 04:22:06;;;;;;;11.38;9.52;;;;;;;;;;5055916;28;20025;-58
2023/05/03 04:24:31;;;;;;;10.45;9.38;;;;;;;;;;5042174;28;20028;-58
2023/05/03 04:26:57;;;;;;;9.85;8.82;;;;;;;;;;5077134;28;20060;-58
2023/05/03 04:29:27;;;;;;;;;;;;;;;;;;5059721;28;20055;-58
2023/05/03 04:31:52;;;;;;;15.37;11.80;;;;;;;;;;5077018;28;19955;-58
2023/05/03 04:34:18;;;;;;;7.43;6.72;;;;;;;;;;5059249;28;20362;-58
2023/05/03 04:36:47;;;;;;;6.90;5.93;;;;;;;;;;5058943;28;20063;-59
2023/05/03 04:39:14;;;;;;;6.65;6.13;;;;;;;;;;5058871;28;20024;-53
2023/05/03 04:41:41;;;;;;;5.78;5.15;;;;;;;;;;5058920;28;20394;-53
2023/05/03 04:44:07;;;;;;;8.27;5.60;;;;;;;;;;5059227;28;20074;-53
2023/05/03 04:46:33;;;;;;;5.93;5.43;;;;;;;;;;5058770;28;20037;-52
2023/05/03 04:48:58;;;;;;;6.25;4.93;;;;;;;;;;5058704;28;20025;-58
2023/05/03 04:51:24;;;;;;;5.05;4.65;;;;;;;;;;5058684;28;20463;-58
2023/05/03 04:53:51;;;;;;;5.10;4.60;;;;;;;;;;5058603;28;20016;-58
2023/05/03 04:56:24;;;;;;;5.43;5.00;;;;;;;;;;5059121;28;20020;-58
2023/05/03 04:58:51;;;;;;;5.68;5.18;;;;;;;;;;5059251;28;20086;-58
2023/05/03 05:01:17;;;;;;;7.65;5.80;;;;;;;;;;5059040;28;20024;-59
2023/05/03 05:03:44;;;;;;;6.70;5.25;;;;;;;;;;5049773;28;20356;-54
2023/05/03 05:06:16;;;;;;;5.50;4.80;;;;;;;;;;5048939;28;20020;-58
2023/05/03 05:08:41;;;;;;;6.45;5.15;;;;;;;;;;5065678;28;20032;-58
2023/05/03 05:11:11;;;;;;;5.55;5.05;;;;;;;;;;5047063;28;20116;-58
2023/05/03 05:13:38;;;;;;;5.30;4.90;;;;;;;;;;5048409;28;20024;-54
2023/05/03 05:16:03;;;;;;;5.47;5.07;;;;;;;;;;5048069;28;20467;-58
2023/05/03 05:18:29;;;;;;;5.20;4.70;;;;;;;;;;5046594;28;20494;-53
2023/05/03 05:20:56;;;;;;;4.70;4.30;;;;;;;;;;5048324;28;20028;-58
2023/05/03 05:23:22;;;;;;;5.00;4.28;;;;;;;;;;5047733;28;20029;-52
2023/05/03 05:25:47;;;;;;;4.78;4.38;;;;;;;;;;5030019;28;20024;-54
2023/05/03 05:28:13;;;;;;;4.75;4.30;;;;;;;;;;5058312;28;20040;-53
2023/05/03 05:30:39;;;;;;;14.05;9.73;;;;;;;;;;5058243;28;20028;-53
2023/05/03 05:33:05;;;;;;;5.88;4.93;;;;;;;;;;5057944;28;20020;-53
2023/05/03 05:35:31;;;;;;;17.13;13.93;;;;;;;;;;5075440;28;20021;-53
2023/05/03 05:37:57;;;;;;;18.27;15.65;;;;;;;;;;5064475;28;20455;-53
2023/05/03 05:40:23;;;;;;;10.35;9.35;;;;;;;;;;5057890;28;20032;-53
2023/05/03 05:42:53;;;;;;;6.15;5.38;;;;;;;;;;5042063;28;20037;-53
2023/05/03 05:45:21;;;;;;;8.52;7.82;;;;;;;;;;5057600;28;20027;-53
2023/05/03 05:47:48;;;;;;;8.52;7.72;;;;;;;;;;5057371;28;20037;-54
2023/05/03 05:50:13;;;;;;;8.75;7.95;;;;;;;;;;5057340;28;20020;-53
2023/05/03 05:52:39;;;;;;;5.85;5.30;;;;;;;;;;5057413;28;20643;-53
2023/05/03 05:55:06;;;;;;;5.95;5.45;;;;;;;;;;5040540;28;20021;-53
2023/05/03 05:57:32;;;;;;;29.60;26.85;;;;;;;;;;5053535;28;20041;-53
2023/05/03 05:59:57;;;;;;;9.32;8.55;;;;;;;;;;5055070;28;20025;-53
2023/05/03 06:02:23;;;;;;;5.35;4.95;;;;;;;;;;5053853;28;20044;-53
2023/05/03 06:04:50;;;;;;;6.22;5.65;;;;;;;;;;5037244;28;20025;-53
2023/05/03 06:07:15;;;;;;;7.68;7.05;;;;;;;;;;5037160;28;20029;-53
2023/05/03 06:09:41;;;;;;;7.40;6.70;;;;;;;;;;5048608;28;20025;-53
2023/05/03 06:12:09;;;;;;;8.82;7.80;;;;;;;;;;5043864;28;20025;-53
2023/05/03 06:14:38;;;;;;;7.50;6.80;;;;;;;;;;5042743;28;20021;-54
2023/05/03 06:17:03;;;;;;;7.25;6.65;;;;;;;;;;5042465;28;20067;-59
2023/05/03 06:19:29;;;;;;;6.07;5.53;;;;;;;;;;5043008;28;20033;-59
2023/05/03 06:21:54;;;;;;;5.72;5.22;;;;;;;;;;5041052;28;20221;-53
2023/05/03 06:24:20;;;;;;;7.18;6.47;;;;;;;;;;5043436;28;20025;-53
2023/05/03 06:26:48;;;;;;;6.47;5.88;;;;;;;;;;5049999;28;20049;-53
2023/05/03 06:29:14;;;;;;;5.45;5.03;;;;;;;;;;5036709;28;20497;-53
2023/05/03 06:31:41;;;;;;;7.28;6.68;;;;;;;;;;5052937;28;20078;-54
2023/05/03 06:34:08;;;;;;;6.28;5.75;;;;;;;;;;5036364;28;20426;-55
2023/05/03 06:36:34;;;;;;;5.60;5.20;;;;;;;;;;5052712;28;20053;-54
2023/05/03 06:39:02;;;;;;;5.00;4.53;;;;;;;;;;5052718;28;20060;-55
2023/05/03 06:41:28;;;;;;;4.25;3.88;;;;;;;;;;5053691;28;20096;-54
2023/05/03 06:43:54;;;;;;;6.45;5.95;;;;;;;;;;5053854;28;20033;-55
2023/05/03 06:46:20;;;;;;;9.52;6.65;;;;;;;;;;5051786;28;20445;-54
2023/05/03 06:48:45;;;;;;;9.05;6.25;;;;;;;;;;5052186;28;20040;-54
2023/05/03 06:51:10;;;;;;;5.30;4.90;;;;;;;;;;5052236;28;20353;-54
2023/05/03 06:53:37;;;;;;;7.25;5.47;;;;;;;;;;5052076;28;20017;-54
2023/05/03 06:56:04;;;;;;;5.68;4.78;;;;;;;;;;5057017;28;20036;-55
2023/05/03 06:58:29;;;;;;;5.63;3.97;;;;;;;;;;5069720;28;20035;-56
2023/05/03 07:00:55;;;;;;;5.95;5.35;;;;;;;;;;5073957;28;20024;-54
2023/05/03 07:03:20;;;;;;;5.53;4.68;;;;;;;;;;5055659;28;20729;-54
2023/05/03 07:05:47;;;;;;;6.30;4.68;;;;;;;;;;5056088;28;20044;-55
2023/05/03 07:08:12;;;;;;;6.43;5.78;;;;;;;;;;5055840;28;20435;-54
2023/05/03 07:10:40;;;;;;;6.80;5.03;;;;;;;;;;5073060;28;20055;-54
2023/05/03 07:13:06;;;;;;;22.77;20.33;;;;;;;;;;5055720;28;20408;-59
2023/05/03 07:15:31;;;;;;;8.25;6.18;;;;;;;;;;5073265;28;20112;-60
2023/05/03 07:17:56;;;;;;;11.65;9.30;;;;;;;;;;5066472;28;20029;-54
2023/05/03 07:20:29;;;;;;;8.43;6.22;;;;;;;;;;5060825;28;20514;-54
2023/05/03 07:22:55;;;;;;;8.80;6.95;;;;;;;;;;5054171;28;20039;-53
2023/05/03 07:25:20;;;;;;;7.05;6.30;;;;;;;;;;5053599;28;20120;-53
2023/05/03 07:27:45;;;;;;;12.00;8.82;;;;;;;;;;5053143;28;20037;-53
2023/05/03 07:30:12;;;;;;;10.85;6.50;;;;;;;;;;5034695;28;20025;-53
2023/05/03 07:32:37;;;;;;;12.95;8.60;;;;;;;;;;5051851;28;20032;-53
2023/05/03 07:35:03;;;;;;;5.20;4.68;;;;;;;;;;5052398;28;20025;-53
2023/05/03 07:37:28;;;;;;;21.70;9.82;;;;;;;;;;5034179;28;20084;-53
2023/05/03 07:39:53;;;;;;;13.10;8.60;;;;;;;;;;5051765;28;20028;-58
2023/05/03 07:42:19;;;;;;;10.93;6.85;;;;;;;;;;5051863;28;20329;-59
2023/05/03 07:44:44;;;;;;;10.80;7.00;;;;;;;;;;5051832;28;20040;-59
2023/05/03 07:47:09;;;;;;;5.60;4.65;;;;;;;;;;5052278;28;20029;-59
2023/05/03 07:49:40;;;;;;;9.15;6.40;;;;;;;;;;5052957;28;20032;-59
2023/05/03 07:52:06;;;;;;;6.90;4.82;;;;;;;;;;5052228;28;20048;-53
2023/05/03 07:54:31;;;;;;;6.05;4.18;;;;;;;;;;5051651;28;20507;-53
2023/05/03 07:56:56;;;;;;;5.00;3.45;;;;;;;;;;5051297;28;20044;-54
2023/05/03 07:59:22;;;;;;;6.57;4.47;;;;;;;;;;5054955;28;20033;-53
2023/05/03 08:01:47;;;;;;;6.13;4.20;;;;;;;;;;5055661;28;20013;-59
2023/05/03 08:04:12;;;;;;;13.10;8.18;;;;;;;;;;5057635;28;20368;-55
2023/05/03 08:06:38;;;;;;;7.47;3.80;;;;;;;;;;5076459;23;20135;-59
2023/05/03 08:09:23;;;;;;;6.85;4.13;;;;;;;;;;5085651;23;20066;-53
2023/05/03 08:12:12;;;;;;;6.03;3.97;;;;;;;;;;5038876;23;20057;-53
2023/05/03 08:14:39;;;;;;;8.98;4.50;;;;;;;;;;5041166;22;20033;-55
2023/05/03 08:17:04;;;;;;;13.52;7.97;;;;;;;;;;5022716;23;20129;-58
2023/05/03 08:19:49;;;;;;;7.15;3.53;;;;;;;;;;5031531;23;20132;-58
2023/05/03 08:22:36;;;;;;;5.72;3.47;;;;;;;;;;5028377;23;20081;-58
2023/05/03 08:25:03;;;;;;;7.30;4.10;;;;;;;;;;4957882;29;20061;-53
2023/05/03 08:27:29;;;;;;;12.75;4.82;;;;;;;;;;4959276;29;20429;-53
2023/05/03 08:29:55;;;;;;;12.75;6.95;;;;;;;;;;4958912;29;20027;-53
2023/05/03 08:32:21;;;;;;;14.75;8.43;;;;;;;;;;4958912;29;20027;-53
2023/05/03 08:34:48;;;;;;;13.15;7.55;;;;;;;;;;4959141;29;20019;-53
2023/05/03 08:37:13;;;;;;;5.35;3.33;;;;;;;;;;4959109;29;20027;-53
2023/05/03 08:39:40;;;;;;;10.88;5.05;;;;;;;;;;4958773;29;20131;-54
2023/05/03 08:42:07;;;;;;;15.40;7.55;;;;;;;;;;4957700;29;20035;-53
2023/05/03 08:44:35;;;;;;;8.43;5.18;;;;;;;;;;4957485;29;20023;-53
2023/05/03 08:47:00;;;;;;;21.35;11.60;;;;;;;;;;4958630;29;20110;-53
2023/05/03 08:49:26;;;;;;;15.60;8.82;;;;;;;;;;4958879;29;20170;-53
2023/05/03 08:51:52;;;;;;;16.77;10.05;;;;;;;;;;4959044;29;20065;-54
2023/05/03 08:54:20;;;;;;;12.23;7.75;;;;;;;;;;4958792;29;20055;-53
2023/05/03 08:56:46;;;;;;;7.32;4.95;;;;;;;;;;4959044;29;20031;-53
2023/05/03 08:59:12;;;;;;;8.32;5.20;;;;;;;;;;4958353;29;20019;-53
2023/05/03 09:01:39;;;;;;;10.35;6.15;;;;;;;;;;4958664;29;20516;-53
2023/05/03 09:04:05;;;;;;;7.50;3.80;;;;;;;;;;4941812;29;20046;-53
2023/05/03 09:06:32;;;;;;;9.82;5.70;;;;;;;;;;4957052;29;20019;-53
2023/05/03 09:08:57;;;;;;;10.18;5.68;;;;;;;;;;4957820;28;20441;-53
2023/05/03 09:11:23;;;;;;;10.70;5.25;;;;;;;;;;4957778;29;20461;-53
2023/05/03 09:13:50;;;;;;;16.00;7.57;;;;;;;;;;4956960;29;20039;-53
2023/05/03 09:16:22;;;;;;;19.13;8.57;;;;;;;;;;4958143;29;20037;-53
2023/05/03 09:19:00;;;;;;;14.13;6.65;;;;;;;;;;4941217;29;20047;-53
2023/05/03 09:21:25;;;;;;;8.77;5.40;;;;;;;;;;4958597;29;20039;-53
2023/05/03 09:23:51;;;;;;;9.32;4.40;;;;;;;;;;4957839;29;20576;-53
2023/05/03 09:26:29;;;;;;;13.65;8.88;;;;;;;;;;4957970;29;20045;-53
2023/05/03 09:28:56;;;;;;;8.07;5.97;;;;;;;;;;4957886;29;20039;-53
2023/05/03 09:31:21;;;;;;;8.88;5.50;;;;;;;;;;4957572;29;20486;-53
2023/05/03 09:33:46;;;;;;;8.60;6.05;;;;;;;;;;4956155;29;20028;-53
2023/05/03 09:36:13;;;;;;;8.50;6.53;;;;;;;;;;4956923;29;20038;-53
2023/05/03 09:38:39;;;;;;;10.05;7.60;;;;;;;;;;4956620;29;20470;-58
2023/05/03 09:41:07;;;;;;;8.75;6.25;;;;;;;;;;4957019;29;20040;-53
2023/05/03 09:43:33;;;;;;;8.50;5.10;;;;;;;;;;4956680;29;20126;-53
2023/05/03 09:46:10;;;;;;;7.97;5.25;;;;;;;;;;4956640;29;20390;-57
2023/05/03 09:48:38;;;;;;;8.30;6.00;;;;;;;;;;4956804;29;20413;-55
2023/05/03 09:51:04;;;;;;;5.95;3.47;;;;;;;;;;4956816;29;20422;-53
2023/05/03 09:53:31;;;;;;;6.45;4.18;;;;;;;;;;4956859;29;20023;-53
2023/05/03 09:55:58;;;;;;;6.38;4.13;;;;;;;;;;4956834;29;20148;-53
2023/05/03 09:58:24;;;;;;;10.25;7.18;;;;;;;;;;4956513;29;20050;-53
2023/05/03 10:00:51;;;;;;;5.90;3.88;;;;;;;;;;4956784;29;20024;-53
2023/05/03 10:03:20;;;;;;;7.38;6.45;;;;;;;;;;4957009;29;20106;-53
2023/05/03 10:05:46;;;;;;;13.65;10.50;;;;;;;;;;4956913;29;20046;-53
2023/05/03 10:08:16;;;;;;;7.32;6.00;;;;;;;;;;4956948;29;20128;-53
2023/05/03 10:10:43;;;;;;;6.18;5.03;;;;;;;;;;4956766;29;20075;-53
2023/05/03 10:13:08;;;;;;;6.18;4.55;;;;;;;;;;4956537;29;20386;-53
2023/05/03 10:15:36;;;;;;;10.85;6.35;;;;;;;;;;4956543;29;20033;-53
2023/05/03 10:18:05;;;;;;;6.15;5.07;;;;;;;;;;4956732;29;20110;-53
2023/05/03 10:20:49;;;;;;;4.72;4.13;;;;;;;;;;4956407;28;20114;-53
2023/05/03 10:23:17;;;;;;;5.78;4.63;;;;;;;;;;4956564;29;20059;-53
2023/05/03 10:26:02;;;;;;;5.20;3.80;;;;;;;;;;4955348;29;20065;-53
2023/05/03 10:28:27;;;;;;;6.43;4.78;;;;;;;;;;4956805;29;20031;-53
2023/05/03 10:30:52;;;;;;;12.20;8.18;;;;;;;;;;4956627;29;20015;-53
2023/05/03 10:33:17;;;;;;;9.48;6.60;;;;;;;;;;4956192;29;20442;-53
2023/05/03 10:35:52;;;;;;;6.47;5.38;;;;;;;;;;4955259;29;20067;-53
2023/05/03 10:38:22;;;;;;;7.53;4.70;;;;;;;;;;4956293;29;20447;-53
2023/05/03 10:40:48;;;;;;;6.72;3.75;;;;;;;;;;4954731;29;20447;-53
2023/05/03 10:43:29;;;;;;;5.78;4.72;;;;;;;;;;4956034;29;20063;-53
2023/05/03 10:45:57;;;;;;;7.78;6.07;;;;;;;;;;4955788;29;20470;-53
2023/05/03 10:48:22;;;;;;;11.57;6.93;;;;;;;;;;4955672;29;20422;-53
2023/05/03 10:50:48;;;;;;;7.88;4.97;;;;;;;;;;4956204;29;20042;-53
2023/05/03 10:53:35;;;;;;;11.85;7.00;;;;;;;;;;4955983;29;20086;-53
2023/05/03 10:56:08;;;;;;;8.15;4.78;;;;;;;;;;4956065;29;20032;-53
2023/05/03 10:58:46;;;;;;;7.10;4.60;;;;;;;;;;4955993;29;20027;-53
2023/05/03 11:01:12;;;;;;;9.07;6.10;;;;;;;;;;4955967;29;20030;-53
2023/05/03 11:03:50;;;;;;;6.88;5.00;;;;;;;;;;4955982;29;20019;-53
2023/05/03 11:06:28;;;;;;;6.63;4.63;;;;;;;;;;4954935;29;20039;-53
2023/05/03 11:08:53;;;;;;;7.53;5.38;;;;;;;;;;4955656;29;20031;-58
2023/05/03 11:11:19;;;;;;;7.65;4.93;;;;;;;;;;4954024;29;20445;-59
2023/05/03 11:13:45;;;;;;;8.13;5.35;;;;;;;;;;4955717;29;20053;-57
2023/05/03 11:16:10;;;;;;;6.00;4.57;;;;;;;;;;4954921;29;20106;-53
2023/05/03 11:18:36;;;;;;;6.97;4.57;;;;;;;;;;4954989;29;20090;-53
2023/05/03 11:21:01;;;;;;;5.53;4.20;;;;;;;;;;4959591;28;20117;-59
2023/05/03 11:23:28;;;;;;;4.53;3.78;;;;;;;;;;4964534;28;20074;-59
2023/05/03 11:25:55;;;;;;;4.35;3.75;;;;;;;;;;4963538;28;20027;-59
2023/05/03 11:28:21;;;;;;;4.25;3.83;;;;;;;;;;4963220;28;20069;-58
2023/05/03 11:30:46;;;;;;;5.63;3.58;;;;;;;;;;4964728;28;20097;-58
2023/05/03 11:33:11;;;;;;;4.80;3.55;;;;;;;;;;4962692;28;20012;-58
2023/05/03 11:35:37;;;;;;;3.25;2.95;;;;;;;;;;4963358;28;20030;-59
2023/05/03 11:38:03;;;;;;;5.70;3.40;;;;;;;;;;4964644;28;20110;-59
2023/05/03 11:40:28;;;;;;;5.85;3.67;;;;;;;;;;4962686;28;20030;-58
2023/05/03 11:42:54;;;;;;;5.25;4.20;;;;;;;;;;4963983;28;20018;-59
2023/05/03 11:45:25;;;;;;;6.43;5.43;;;;;;;;;;4968785;28;20094;-53
2023/05/03 11:47:50;;;;;;;6.13;5.47;;;;;;;;;;4961990;28;20042;-58
2023/05/03 11:50:16;;;;;;;6.72;5.60;;;;;;;;;;4968045;28;20023;-54
2023/05/03 11:52:42;;;;;;;7.32;6.57;;;;;;;;;;4963456;28;20027;-53
2023/05/03 11:55:08;;;;;;;9.15;6.28;;;;;;;;;;4964786;28;20027;-53
2023/05/03 11:57:35;;;;;;;8.05;6.00;;;;;;;;;;4953828;29;20062;-53
2023/05/03 12:00:13;;;;;;;9.05;5.50;;;;;;;;;;4954417;29;20050;-53
2023/05/03 12:02:39;;;;;;;6.25;4.70;;;;;;;;;;4954416;29;20110;-53
2023/05/03 12:05:06;;;;;;;7.60;5.43;;;;;;;;;;4955069;29;20038;-53
2023/05/03 12:07:31;;;;;;;5.38;4.85;;;;;;;;;;4954468;29;20035;-53
2023/05/03 12:09:57;;;;;;;7.70;5.47;;;;;;;;;;4953512;29;20088;-53
2023/05/03 12:12:22;;;;;;;10.57;5.70;;;;;;;;;;4954717;29;20031;-53
2023/05/03 12:14:57;;;;;;;5.85;5.22;;;;;;;;;;4954759;29;20118;-53
2023/05/03 12:17:36;;;;;;;7.18;5.00;;;;;;;;;;4953952;29;20027;-53
2023/05/03 12:20:17;;;;;;;5.03;4.50;;;;;;;;;;4954838;29;20488;-53
2023/05/03 12:22:46;;;;;;;6.20;5.00;;;;;;;;;;4954414;29;20033;-53
2023/05/03 12:25:12;;;;;;;7.72;5.25;;;;;;;;;;4954823;29;20055;-54
2023/05/03 12:27:37;;;;;;;7.00;5.05;;;;;;;;;;4954511;29;20430;-53
2023/05/03 12:30:07;;;;;;;7.05;5.10;;;;;;;;;;4953459;29;20047;-53
2023/05/03 12:32:34;;;;;;;5.25;4.03;;;;;;;;;;4954426;29;20023;-53
2023/05/03 12:34:59;;;;;;;4.63;4.10;;;;;;;;;;4954809;29;20039;-54
2023/05/03 12:37:24;;;;;;;5.68;4.97;;;;;;;;;;4952991;29;20035;-54
2023/05/03 12:39:50;;;;;;;5.65;4.55;;;;;;;;;;4956580;28;20026;-54
2023/05/03 12:42:15;;;;;;;4.82;4.30;;;;;;;;;;4972873;28;20070;-54
2023/05/03 12:44:41;;;;;;;7.55;5.10;;;;;;;;;;4974314;28;20035;-54
2023/05/03 12:47:06;;;;;;;4.25;3.90;;;;;;;;;;4971483;28;20078;-54
2023/05/03 12:49:32;;;;;;;8.18;4.85;;;;;;;;;;4967469;28;20030;-54
2023/05/03 12:51:59;;;;;;;8.35;5.40;;;;;;;;;;4966477;28;20485;-54
2023/05/03 12:54:30;;;;;;;11.20;6.80;;;;;;;;;;4966341;28;20050;-54
2023/05/03 12:56:55;;;;;;;10.05;6.53;;;;;;;;;;4948741;28;20401;-54
2023/05/03 12:59:22;;;;;;;6.10;5.53;;;;;;;;;;4965449;28;20062;-54
2023/05/03 13:01:47;;;;;;;6.07;4.97;;;;;;;;;;4968080;28;20558;-54
2023/05/03 13:04:13;;;;;;;5.55;4.55;;;;;;;;;;4966176;28;20027;-54
2023/05/03 13:06:39;;;;;;;8.10;5.78;;;;;;;;;;4964687;28;20027;-58
2023/05/03 13:09:05;;;;;;;7.70;5.88;;;;;;;;;;4956849;29;20109;-59
2023/05/03 13:11:31;;;;;;;12.20;7.00;;;;;;;;;;4956926;29;20074;-59
2023/05/03 13:13:56;;;;;;;9.30;8.40;;;;;;;;;;4956849;29;20027;-59
2023/05/03 13:16:23;;;;;;;17.20;15.20;;;;;;;;;;4956539;29;20114;-58
2023/05/03 13:18:53;;;;;;;10.55;9.35;;;;;;;;;;4956817;29;20020;-54
2023/05/03 13:21:19;;;;;;;11.38;8.13;;;;;;;;;;4956234;29;20466;-54
2023/05/03 13:23:44;;;;;;;7.63;6.63;;;;;;;;;;4957509;29;20134;-54
2023/05/03 13:26:10;;;;;;;6.57;5.85;;;;;;;;;;4957804;29;20454;-53
2023/05/03 13:28:35;;;;;;;7.82;6.22;;;;;;;;;;4957035;29;20445;-53
2023/05/03 13:31:01;;;;;;;6.28;5.65;;;;;;;;;;4956960;28;20023;-58
2023/05/03 13:33:27;;;;;;;9.23;6.40;;;;;;;;;;4957098;29;20038;-53
2023/05/03 13:35:53;;;;;;;11.05;6.97;;;;;;;;;;4957128;29;20078;-53
2023/05/03 13:38:18;;;;;;;7.43;6.38;;;;;;;;;;4956183;29;20126;-53
2023/05/03 13:40:44;;;;;;;8.23;6.85;;;;;;;;;;4957071;29;20119;-53
2023/05/03 13:43:10;;;;;;;5.53;4.93;;;;;;;;;;4957381;29;20071;-53
2023/05/03 13:45:37;;;;;;;6.20;5.13;;;;;;;;;;4956928;29;20042;-53
2023/05/03 13:48:03;;;;;;;7.93;5.68;;;;;;;;;;4956536;29;20362;-53
2023/05/03 13:50:29;;;;;;;6.28;5.13;;;;;;;;;;4955422;29;20032;-53
2023/05/03 13:52:55;;;;;;;10.63;7.30;;;;;;;;;;4956836;29;20023;-53
2023/05/03 13:55:26;;;;;;;8.55;6.57;;;;;;;;;;4956361;28;20386;-53
2023/05/03 13:57:52;;;;;;;7.55;6.22;;;;;;;;;;4956538;29;20042;-53
2023/05/03 14:00:20;;;;;;;11.40;6.97;;;;;;;;;;4956504;29;20035;-53
2023/05/03 14:02:45;;;;;;;10.00;7.35;;;;;;;;;;4955364;29;20035;-53
2023/05/03 14:05:12;;;;;;;7.45;6.57;;;;;;;;;;4955597;29;20034;-53
2023/05/03 14:07:37;;;;;;;8.85;6.70;;;;;;;;;;4956967;29;20043;-53
2023/05/03 14:10:04;;;;;;;10.27;7.00;;;;;;;;;;4956831;29;20027;-53
2023/05/03 14:12:35;;;;;;;9.05;6.00;;;;;;;;;;4956777;29;20497;-53
2023/05/03 14:15:04;;;;;;;8.00;5.65;;;;;;;;;;4939592;29;20458;-53
2023/05/03 14:17:29;;;;;;;6.60;5.80;;;;;;;;;;4956766;29;20027;-53
2023/05/03 14:19:54;;;;;;;8.82;6.60;;;;;;;;;;4956699;29;20105;-53
2023/05/03 14:22:20;;;;;;;7.28;5.88;;;;;;;;;;4956590;29;20030;-53
2023/05/03 14:24:45;;;;;;;8.40;6.20;;;;;;;;;;4956331;29;20047;-53
2023/05/03 14:27:13;;;;;;;8.35;5.78;;;;;;;;;;4956240;29;20043;-53
2023/05/03 14:29:38;;;;;;;8.65;5.72;;;;;;;;;;4956109;29;20035;-53
2023/05/03 14:32:04;;;;;;;5.97;5.38;;;;;;;;;;4956092;29;20082;-53
2023/05/03 14:34:29;;;;;;;7.88;5.85;;;;;;;;;;4955891;29;20031;-53
2023/05/03 14:36:55;;;;;;;6.40;4.72;;;;;;;;;;4954968;29;20035;-53